createdAt,value
2018-09-22T00:00:02.754Z,57.92
2018-09-22T00:05:07.268Z,57.77
2018-09-22T00:10:10.745Z,58.35
2018-09-22T00:15:14.222Z,57.96
2018-09-22T00:20:17.702Z,58.24
2018-09-22T00:25:21.143Z,58.40
2018-09-22T00:30:24.790Z,58.38
2018-09-22T00:35:28.333Z,58.34
2018-09-22T00:40:31.792Z,57.83
2018-09-22T00:45:35.255Z,58.24
2018-09-22T00:50:38.719Z,57.63
2018-09-22T00:55:42.166Z,57.74
2018-09-22T01:00:45.615Z,57.70
2018-09-22T01:05:49.067Z,57.90
2018-09-22T01:10:52.524Z,57.67
2018-09-22T01:15:55.992Z,57.63
2018-09-22T01:20:59.464Z,57.44
2018-09-22T01:26:02.906Z,57.56
2018-09-22T01:31:06.369Z,57.85
2018-09-22T01:36:09.831Z,58.03
2018-09-22T01:41:13.286Z,56.96
2018-09-22T01:46:16.792Z,57.10
2018-09-22T01:51:20.252Z,57.67
2018-09-22T01:56:23.706Z,57.95
2018-09-22T02:01:27.159Z,58.81
2018-09-22T02:06:30.648Z,58.69
2018-09-22T02:11:34.112Z,58.65
2018-09-22T02:16:37.572Z,59.35
2018-09-22T02:21:41.046Z,59.52
2018-09-22T02:26:44.491Z,59.60
2018-09-22T02:31:47.947Z,59.47
2018-09-22T02:36:51.441Z,59.75
2018-09-22T02:41:54.899Z,60.22
2018-09-22T02:46:58.383Z,59.83
2018-09-22T02:52:01.865Z,60.21
2018-09-22T02:57:05.355Z,60.89
2018-09-22T03:02:08.816Z,60.42
2018-09-22T03:07:12.277Z,60.32
2018-09-22T03:12:15.727Z,60.82
2018-09-22T03:17:19.188Z,61.12
2018-09-22T03:22:22.652Z,60.83
2018-09-22T03:27:26.114Z,61.18
2018-09-22T03:32:29.569Z,60.84
2018-09-22T03:37:33.043Z,60.87
2018-09-22T03:42:36.499Z,60.63
2018-09-22T03:47:40.030Z,60.96
2018-09-22T03:52:43.483Z,61.12
2018-09-22T03:57:46.940Z,60.96
2018-09-22T04:02:50.392Z,61.29
2018-09-22T04:07:53.840Z,61.06
2018-09-22T04:12:57.303Z,61.36
2018-09-22T04:18:00.776Z,61.66
2018-09-22T04:23:04.261Z,61.86
2018-09-22T04:28:07.779Z,61.72
2018-09-22T04:33:11.255Z,61.36
2018-09-22T04:38:14.728Z,61.46
2018-09-22T04:43:18.181Z,61.50
2018-09-22T04:48:21.659Z,61.79
2018-09-22T04:53:25.104Z,61.99
2018-09-22T04:58:28.575Z,62.45
2018-09-22T05:03:32.024Z,62.17
2018-09-22T05:08:35.483Z,62.28
2018-09-22T05:13:38.930Z,62.01
2018-09-22T05:18:42.374Z,62.58
2018-09-22T05:23:45.806Z,62.20
2018-09-22T05:28:49.230Z,62.68
2018-09-22T05:33:52.716Z,62.19
2018-09-22T05:38:56.176Z,62.16
2018-09-22T05:43:59.612Z,62.49
2018-09-22T05:49:03.313Z,62.92
2018-09-22T05:54:07.185Z,62.86
2018-09-22T05:59:10.971Z,62.87
2018-09-22T06:04:14.410Z,62.75
2018-09-22T06:09:17.839Z,62.63
2018-09-22T06:14:21.587Z,62.75
2018-09-22T06:19:25.022Z,62.75
2018-09-22T06:24:28.600Z,62.69
2018-09-22T06:29:32.037Z,62.43
2018-09-22T06:34:35.462Z,62.43
2018-09-22T06:39:38.899Z,63.25
2018-09-22T06:44:42.319Z,62.71
2018-09-22T06:49:45.744Z,63.08
2018-09-22T06:54:49.234Z,62.39
2018-09-22T06:59:52.626Z,62.43
2018-09-22T07:04:56.063Z,45.81
2018-09-22T07:09:59.487Z,47.88
2018-09-22T07:15:03.116Z,48.38
2018-09-22T07:20:07.151Z,50.27
2018-09-22T07:25:10.613Z,51.46
2018-09-22T07:30:14.098Z,52.08
2018-09-22T07:35:17.549Z,52.60
2018-09-22T07:40:21.007Z,52.35
2018-09-22T07:45:25.832Z,52.51
2018-09-22T07:50:29.283Z,51.80
2018-09-22T07:55:32.730Z,52.12
2018-09-22T08:00:36.202Z,52.05
2018-09-22T08:05:39.647Z,51.76
2018-09-22T08:10:43.083Z,52.09
2018-09-22T08:15:46.535Z,51.13
2018-09-22T08:20:49.971Z,51.87
2018-09-22T08:25:53.434Z,51.82
2018-09-22T08:30:56.970Z,51.29
2018-09-22T08:36:00.456Z,51.04
2018-09-22T08:41:03.956Z,50.56
2018-09-22T08:46:07.422Z,50.08
2018-09-22T08:51:10.919Z,50.46
2018-09-22T08:56:14.363Z,50.14
2018-09-22T09:01:17.855Z,49.51
2018-09-22T09:06:22.053Z,49.38
2018-09-22T09:11:25.525Z,49.62
2018-09-22T09:16:29.012Z,49.59
2018-09-22T09:21:32.453Z,49.37
2018-09-22T09:26:35.883Z,49.09
2018-09-22T09:31:39.368Z,49.29
2018-09-22T09:36:42.809Z,49.29
2018-09-22T09:41:46.326Z,48.86
2018-09-22T09:46:49.823Z,48.99
2018-09-22T09:51:53.265Z,48.60
2018-09-22T09:56:56.723Z,48.55
2018-09-22T10:02:00.157Z,47.52
2018-09-22T10:07:03.653Z,48.08
2018-09-22T10:12:07.386Z,48.01
2018-09-22T10:17:10.849Z,48.12
2018-09-22T10:22:14.466Z,47.85
2018-09-22T10:27:18.084Z,47.93
2018-09-22T10:32:21.585Z,47.84
2018-09-22T10:37:25.091Z,48.36
2018-09-22T10:42:28.585Z,47.70
2018-09-22T10:47:32.117Z,47.40
2018-09-22T10:52:35.792Z,46.91
2018-09-22T10:57:39.141Z,46.86
2018-09-22T11:02:42.652Z,47.45
2018-09-22T11:07:46.409Z,47.39
2018-09-22T11:12:51.123Z,47.24
2018-09-22T11:17:54.853Z,47.41
2018-09-22T11:22:58.544Z,46.78
2018-09-22T11:28:02.228Z,46.32
2018-09-22T11:33:05.671Z,46.21
2018-09-22T11:38:09.161Z,45.95
2018-09-22T11:43:12.900Z,45.79
2018-09-22T11:48:16.379Z,45.57
2018-09-22T11:53:19.821Z,45.26
2018-09-22T11:58:23.316Z,44.55
2018-09-22T12:03:26.780Z,42.28
2018-09-22T12:08:30.244Z,43.60
2018-09-22T12:13:34.010Z,43.33
2018-09-22T12:18:37.534Z,43.22
2018-09-22T12:23:41.202Z,44.11
2018-09-22T12:28:44.648Z,44.42
2018-09-22T12:33:48.164Z,43.90
2018-09-22T12:38:51.889Z,44.10
2018-09-22T12:43:55.391Z,43.53
2018-09-22T12:48:58.954Z,43.66
2018-09-22T12:54:02.678Z,42.95
2018-09-22T12:59:06.329Z,44.07
2018-09-22T13:04:09.824Z,43.75
2018-09-22T13:09:13.354Z,44.26
2018-09-22T13:14:16.787Z,44.33
2018-09-22T13:19:20.240Z,43.84
2018-09-22T13:24:23.692Z,42.56
2018-09-22T13:29:27.153Z,41.88
2018-09-22T13:34:30.847Z,42.29
2018-09-22T13:39:34.303Z,42.50
2018-09-22T13:44:37.778Z,42.55
2018-09-22T13:49:41.248Z,42.36
2018-09-22T13:54:44.763Z,42.19
2018-09-22T13:59:48.230Z,41.71
2018-09-22T14:04:51.809Z,42.13
2018-09-22T14:09:55.386Z,42.07
2018-09-22T14:14:58.889Z,41.70
2018-09-22T14:20:02.343Z,41.92
2018-09-22T14:25:06.908Z,42.03
2018-09-22T14:30:10.360Z,42.24
2018-09-22T14:35:13.863Z,42.55
2018-09-22T14:40:17.600Z,42.12
2018-09-22T14:45:21.062Z,42.25
2018-09-22T14:50:24.559Z,42.19
2018-09-22T14:55:28.071Z,41.82
2018-09-22T15:00:31.651Z,41.57
2018-09-22T15:05:35.099Z,41.43
2018-09-22T15:10:38.544Z,41.24
2018-09-22T15:15:42.047Z,40.44
2018-09-22T15:20:45.508Z,41.23
2018-09-22T15:25:48.929Z,41.35
2018-09-22T15:30:52.379Z,42.29
2018-09-22T15:35:55.840Z,41.81
2018-09-22T15:40:59.319Z,42.13
2018-09-22T15:46:02.775Z,42.86
2018-09-22T15:51:06.390Z,43.09
2018-09-22T15:56:10.013Z,43.75
2018-09-22T16:01:13.478Z,43.85
2018-09-22T16:06:16.977Z,43.68
2018-09-22T16:11:20.414Z,43.39
2018-09-22T16:16:23.853Z,43.79
2018-09-22T16:21:27.287Z,44.32
2018-09-22T16:26:30.807Z,45.81
2018-09-22T16:31:34.251Z,45.60
2018-09-22T16:36:37.723Z,46.23
2018-09-22T16:41:41.328Z,47.71
2018-09-22T16:46:44.816Z,47.93
2018-09-22T16:51:48.260Z,47.55
2018-09-22T16:56:51.695Z,47.23
2018-09-22T17:01:55.176Z,46.61
2018-09-22T17:06:58.628Z,46.18
2018-09-22T17:12:02.115Z,45.58
2018-09-22T17:17:05.571Z,45.97
2018-09-22T17:22:09.046Z,45.65
2018-09-22T17:27:12.586Z,45.13
2018-09-22T17:32:16.062Z,44.56
2018-09-22T17:37:19.664Z,45.54
2018-09-22T17:42:23.114Z,45.37
2018-09-22T17:47:26.651Z,44.89
2018-09-22T17:52:30.175Z,44.82
2018-09-22T17:57:33.668Z,44.57
2018-09-22T18:02:37.112Z,45.18
2018-09-22T18:07:40.554Z,44.94
2018-09-22T18:12:44.047Z,44.74
2018-09-22T18:17:47.613Z,44.82
2018-09-22T18:22:51.117Z,44.55
2018-09-22T18:27:54.575Z,44.95
2018-09-22T18:32:58.715Z,45.26
2018-09-22T18:38:02.152Z,44.89
2018-09-22T18:43:05.596Z,44.94
2018-09-22T18:48:09.109Z,45.02
2018-09-22T18:53:12.565Z,44.14
2018-09-22T18:58:16.148Z,45.18
2018-09-22T19:03:20.290Z,44.80
2018-09-22T19:08:23.914Z,45.14
2018-09-22T19:13:32.878Z,45.08
2018-09-22T19:18:41.956Z,44.53
2018-09-22T19:23:48.915Z,45.10
2018-09-22T19:28:59.010Z,44.98
2018-09-22T19:34:05.923Z,44.60
2018-09-22T19:39:15.174Z,44.12
2018-09-22T19:44:29.586Z,44.70
2018-09-22T19:49:36.791Z,44.22
2018-09-22T19:54:40.446Z,44.38
2018-09-22T19:59:44.478Z,43.93
2018-09-22T20:04:48.235Z,44.66
2018-09-22T20:09:51.728Z,44.45
2018-09-22T20:14:55.847Z,44.49
2018-09-22T20:19:59.587Z,44.39
2018-09-22T20:25:03.534Z,44.74
2018-09-22T20:30:07.748Z,44.85
2018-09-22T20:35:11.889Z,45.41
2018-09-22T20:40:15.863Z,45.61
2018-09-22T20:45:20.066Z,45.49
2018-09-22T20:50:24.220Z,46.03
2018-09-22T20:55:27.947Z,46.16
2018-09-22T21:00:31.396Z,46.13
2018-09-22T21:05:34.877Z,46.34
2018-09-22T21:10:38.412Z,46.21
2018-09-22T21:15:41.956Z,47.06
2018-09-22T21:20:45.567Z,46.97
2018-09-22T21:25:49.203Z,46.61
2018-09-22T21:30:53.179Z,47.16
2018-09-22T21:35:57.008Z,47.05
2018-09-22T21:41:00.740Z,47.01
2018-09-22T21:46:04.178Z,46.55
2018-09-22T21:51:07.782Z,46.86
2018-09-22T21:56:11.250Z,47.37
2018-09-22T22:01:19.913Z,47.42
2018-09-22T22:06:23.387Z,47.45
2018-09-22T22:11:26.920Z,47.38
2018-09-22T22:16:30.435Z,47.58
2018-09-22T22:21:34.149Z,47.79
2018-09-22T22:26:37.730Z,48.32
2018-09-22T22:31:41.223Z,48.46
2018-09-22T22:36:44.702Z,48.32
2018-09-22T22:41:48.174Z,48.24
2018-09-22T22:46:51.620Z,48.29
2018-09-22T22:51:55.090Z,48.56
2018-09-22T22:56:58.568Z,48.84
2018-09-22T23:02:02.029Z,49.00
2018-09-22T23:07:05.951Z,48.90
2018-09-22T23:12:09.378Z,48.98
2018-09-22T23:17:12.823Z,48.81
2018-09-22T23:22:16.273Z,49.29
2018-09-22T23:27:19.739Z,49.37
2018-09-22T23:32:23.194Z,49.44
2018-09-22T23:37:26.671Z,48.86
2018-09-22T23:42:30.138Z,49.46
2018-09-22T23:47:33.583Z,49.25
2018-09-22T23:52:37.040Z,49.82
2018-09-22T23:57:40.508Z,49.39
